SAS2648 EDDH-ESSA
Flight info
| Callsign | SAS2648 |
|---|---|
| Flight time | 1h 20m |
| Altitude | 35000 |
| Route | LUGEG3G LUGEG P605 MEGAR DCT BEDOS N851 PELUP Z226 NILUG |
| Aircraft | A321/M-SDE3FGHIRWY/LB1 |
Departure
| Time | 2026-04-23 15:35 |
|---|---|
| Airport | Hamburg Helmut Schmidt Airport (EDDH) |
Arrival
| Time | 2026-04-23 16:56 |
|---|---|
| Airport | Stockholm-Arlanda Airport (ESSA) |
| Time | Latitude | Longitude | Altitude | Speed | Heading |
|---|---|---|---|---|---|
| 2026-04-23 15:05 | 53.63302 | 10.00023 | 51 ft | 0 kts | 143° |
| 2026-04-23 15:23 | 53.63302 | 10.00022 | 51 ft | 0 kts | 143° |
| 2026-04-23 15:27 | 53.63306 | 10.00017 | 51 ft | 2 kts | 143° |
| 2026-04-23 15:27 | 53.63322 | 9.99998 | 48 ft | 3 kts | 143° |
| 2026-04-23 15:27 | 53.63338 | 9.99978 | 48 ft | 2 kts | 143° |
| 2026-04-23 15:28 | 53.63352 | 9.99962 | 50 ft | 3 kts | 162° |
| 2026-04-23 15:28 | 53.63368 | 9.99959 | 49 ft | 3 kts | 204° |
| 2026-04-23 15:28 | 53.63384 | 9.99976 | 48 ft | 3 kts | 228° |
| 2026-04-23 15:28 | 53.63391 | 9.99990 | 47 ft | 1 kts | 230° |
| 2026-04-23 15:29 | 53.63392 | 9.99992 | 47 ft | 0 kts | 230° |
| 2026-04-23 15:33 | 53.63387 | 9.99982 | 47 ft | 4 kts | 230° |
| 2026-04-23 15:33 | 53.63350 | 9.99908 | 50 ft | 12 kts | 230° |
| 2026-04-23 15:34 | 53.63294 | 9.99796 | 50 ft | 13 kts | 230° |
| 2026-04-23 15:34 | 53.63277 | 9.99657 | 50 ft | 13 kts | 280° |
| 2026-04-23 15:34 | 53.63295 | 9.99504 | 50 ft | 14 kts | 285° |
| 2026-04-23 15:34 | 53.63396 | 9.99294 | 51 ft | 50 kts | 323° |
| 2026-04-23 15:35 | 53.63966 | 9.98796 | 50 ft | 133 kts | 334° |
| 2026-04-23 15:35 | 53.64999 | 9.97916 | 241 ft | 185 kts | 327° |
| 2026-04-23 15:35 | 53.66177 | 9.96877 | 923 ft | 196 kts | 329° |
| 2026-04-23 15:35 | 53.67427 | 9.95788 | 1256 ft | 213 kts | 330° |
| 2026-04-23 15:36 | 53.68888 | 9.94825 | 1653 ft | 237 kts | 346° |
| 2026-04-23 15:36 | 53.70534 | 9.94663 | 2415 ft | 243 kts | 358° |
| 2026-04-23 15:36 | 53.72249 | 9.94930 | 3319 ft | 249 kts | 14° |
| 2026-04-23 15:36 | 53.73752 | 9.96359 | 4117 ft | 259 kts | 41° |
| 2026-04-23 15:37 | 53.74777 | 9.98917 | 4785 ft | 269 kts | 59° |
| 2026-04-23 15:37 | 53.75607 | 10.01747 | 4980 ft | 269 kts | 60° |
| 2026-04-23 15:37 | 53.76152 | 10.03666 | 5087 ft | 269 kts | 60° |
| 2026-04-23 15:37 | 53.77222 | 10.07464 | 6142 ft | 270 kts | 60° |
| 2026-04-23 15:38 | 53.78045 | 10.10373 | 6940 ft | 272 kts | 59° |
| 2026-04-23 15:38 | 53.78869 | 10.13267 | 7638 ft | 274 kts | 59° |
| 2026-04-23 15:38 | 53.79705 | 10.16189 | 8376 ft | 278 kts | 59° |
| 2026-04-23 15:38 | 53.80552 | 10.19145 | 9088 ft | 281 kts | 59° |
| 2026-04-23 15:39 | 53.81394 | 10.22092 | 9777 ft | 284 kts | 59° |
| 2026-04-23 15:39 | 53.82271 | 10.25149 | 10456 ft | 287 kts | 59° |
| 2026-04-23 15:39 | 53.83148 | 10.28209 | 11074 ft | 290 kts | 59° |
| 2026-04-23 15:39 | 53.84032 | 10.31295 | 11727 ft | 292 kts | 59° |
| 2026-04-23 15:40 | 53.84919 | 10.34404 | 12372 ft | 295 kts | 60° |
| 2026-04-23 15:40 | 53.85804 | 10.37515 | 13017 ft | 298 kts | 60° |
| 2026-04-23 15:40 | 53.86708 | 10.40695 | 13668 ft | 301 kts | 60° |
| 2026-04-23 15:40 | 53.87639 | 10.43888 | 14282 ft | 302 kts | 55° |
| 2026-04-23 15:41 | 53.88921 | 10.46750 | 14832 ft | 302 kts | 47° |
| 2026-04-23 15:41 | 53.90270 | 10.49499 | 15397 ft | 305 kts | 47° |
| 2026-04-23 15:41 | 53.91635 | 10.52275 | 15933 ft | 308 kts | 47° |
| 2026-04-23 15:41 | 53.93015 | 10.55076 | 16478 ft | 311 kts | 47° |
| 2026-04-23 15:42 | 53.94412 | 10.57910 | 17012 ft | 314 kts | 47° |
| 2026-04-23 15:42 | 53.95816 | 10.60771 | 17551 ft | 317 kts | 47° |
| 2026-04-23 15:42 | 53.97235 | 10.63666 | 18078 ft | 320 kts | 47° |
| 2026-04-23 15:42 | 53.98666 | 10.66586 | 18600 ft | 323 kts | 47° |
| 2026-04-23 15:43 | 54.00111 | 10.69541 | 19068 ft | 326 kts | 47° |
| 2026-04-23 15:43 | 54.01565 | 10.72520 | 19544 ft | 328 kts | 47° |
| 2026-04-23 15:43 | 54.02532 | 10.74499 | 19854 ft | 330 kts | 47° |
| 2026-04-23 15:43 | 54.04502 | 10.78533 | 20491 ft | 333 kts | 47° |
| 2026-04-23 15:44 | 54.05483 | 10.80540 | 20795 ft | 334 kts | 47° |
| 2026-04-23 15:44 | 54.07037 | 10.83484 | 21243 ft | 334 kts | 38° |
| 2026-04-23 15:44 | 54.08915 | 10.85808 | 21677 ft | 335 kts | 32° |
| 2026-04-23 15:44 | 54.10837 | 10.88060 | 22148 ft | 337 kts | 32° |
| 2026-04-23 15:45 | 54.12773 | 10.90326 | 22605 ft | 339 kts | 32° |
| 2026-04-23 15:45 | 54.14724 | 10.92612 | 23056 ft | 341 kts | 32° |
| 2026-04-23 15:45 | 54.16687 | 10.94911 | 23504 ft | 343 kts | 32° |
| 2026-04-23 15:45 | 54.18659 | 10.97222 | 23919 ft | 346 kts | 32° |
| 2026-04-23 15:46 | 54.20647 | 10.99566 | 24280 ft | 347 kts | 32° |
| 2026-04-23 15:46 | 54.22638 | 11.01917 | 24659 ft | 349 kts | 32° |
| 2026-04-23 15:46 | 54.24641 | 11.04279 | 25027 ft | 351 kts | 32° |
| 2026-04-23 15:46 | 54.26653 | 11.06653 | 25400 ft | 352 kts | 32° |
| 2026-04-23 15:47 | 54.28672 | 11.09034 | 25772 ft | 353 kts | 32° |
| 2026-04-23 15:47 | 54.30699 | 11.11429 | 26132 ft | 355 kts | 32° |
| 2026-04-23 15:47 | 54.32737 | 11.13841 | 26498 ft | 356 kts | 32° |
| 2026-04-23 15:47 | 54.34779 | 11.16261 | 26856 ft | 358 kts | 32° |
| 2026-04-23 15:48 | 54.36830 | 11.18695 | 27212 ft | 359 kts | 32° |
| 2026-04-23 15:48 | 54.38893 | 11.21148 | 27544 ft | 361 kts | 33° |
| 2026-04-23 15:48 | 54.40958 | 11.23612 | 27876 ft | 362 kts | 33° |
| 2026-04-23 15:48 | 54.43032 | 11.26089 | 28204 ft | 364 kts | 33° |
| 2026-04-23 15:49 | 54.45116 | 11.28578 | 28532 ft | 366 kts | 33° |
| 2026-04-23 15:49 | 54.47207 | 11.31082 | 28863 ft | 367 kts | 33° |
| 2026-04-23 15:49 | 54.49305 | 11.33596 | 29179 ft | 369 kts | 33° |
| 2026-04-23 15:49 | 54.51414 | 11.36124 | 29491 ft | 370 kts | 33° |
| 2026-04-23 15:50 | 54.53529 | 11.38661 | 29805 ft | 371 kts | 33° |
| 2026-04-23 15:50 | 54.54585 | 11.39929 | 29960 ft | 372 kts | 33° |
| 2026-04-23 15:51 | 54.56258 | 11.41936 | 30105 ft | 369 kts | 33° |
| 2026-04-23 15:52 | 54.58338 | 11.44441 | 30238 ft | 360 kts | 33° |
| 2026-04-23 15:52 | 54.60364 | 11.46887 | 30360 ft | 352 kts | 33° |
| 2026-04-23 15:52 | 54.62344 | 11.49283 | 30477 ft | 344 kts | 33° |
| 2026-04-23 15:52 | 54.64291 | 11.51637 | 30602 ft | 343 kts | 33° |
| 2026-04-23 15:53 | 54.64790 | 11.52240 | 30635 ft | 345 kts | 33° |
| 2026-04-23 15:53 | 54.65280 | 11.52831 | 30664 ft | 346 kts | 33° |
| 2026-04-23 15:54 | 54.67662 | 11.55718 | 30788 ft | 330 kts | 32° |
| 2026-04-23 15:54 | 54.67752 | 11.55829 | 30810 ft | 330 kts | 32° |
| 2026-04-23 15:55 | 54.70134 | 11.58768 | 30952 ft | 312 kts | 33° |
| 2026-04-23 15:55 | 54.71894 | 11.60937 | 31079 ft | 311 kts | 32° |
| 2026-04-23 15:55 | 54.73680 | 11.63087 | 31205 ft | 315 kts | 32° |
| 2026-04-23 15:55 | 54.75505 | 11.65268 | 31116 ft | 327 kts | 32° |
| 2026-04-23 15:56 | 54.77412 | 11.67551 | 31009 ft | 338 kts | 32° |
| 2026-04-23 15:56 | 54.81375 | 11.72350 | 31008 ft | 356 kts | 32° |
| 2026-04-23 15:57 | 54.85528 | 11.77436 | 31011 ft | 374 kts | 33° |
| 2026-04-23 15:57 | 54.89773 | 11.82655 | 31716 ft | 366 kts | 32° |
| 2026-04-23 15:57 | 54.91861 | 11.85228 | 31869 ft | 370 kts | 32° |
| 2026-04-23 15:58 | 54.93977 | 11.87832 | 31996 ft | 375 kts | 32° |
| 2026-04-23 15:58 | 54.96120 | 11.90468 | 32130 ft | 380 kts | 32° |
| 2026-04-23 15:58 | 54.98287 | 11.93135 | 32265 ft | 384 kts | 32° |
| 2026-04-23 15:58 | 55.00476 | 11.95838 | 32457 ft | 387 kts | 32° |
| 2026-04-23 15:59 | 55.02674 | 11.98560 | 32696 ft | 389 kts | 32° |
| 2026-04-23 15:59 | 55.04880 | 12.01297 | 32934 ft | 390 kts | 32° |
| 2026-04-23 15:59 | 55.07100 | 12.04051 | 33178 ft | 392 kts | 32° |
| 2026-04-23 15:59 | 55.09325 | 12.06814 | 33420 ft | 393 kts | 32° |
| 2026-04-23 16:00 | 55.11556 | 12.09585 | 33650 ft | 395 kts | 32° |
| 2026-04-23 16:00 | 55.13801 | 12.12376 | 33910 ft | 396 kts | 32° |
| 2026-04-23 16:00 | 55.16048 | 12.15179 | 34142 ft | 398 kts | 32° |
| 2026-04-23 16:00 | 55.18306 | 12.18005 | 34348 ft | 399 kts | 32° |
| 2026-04-23 16:01 | 55.20568 | 12.20836 | 34556 ft | 401 kts | 32° |
| 2026-04-23 16:01 | 55.22840 | 12.23678 | 34759 ft | 402 kts | 32° |
| 2026-04-23 16:01 | 55.25118 | 12.26533 | 34963 ft | 403 kts | 32° |
| 2026-04-23 16:01 | 55.27404 | 12.29401 | 35124 ft | 405 kts | 32° |
| 2026-04-23 16:02 | 55.29694 | 12.32278 | 35147 ft | 405 kts | 32° |
| 2026-04-23 16:02 | 55.32011 | 12.35193 | 34418 ft | 415 kts | 32° |
| 2026-04-23 16:02 | 55.34388 | 12.38182 | 34346 ft | 423 kts | 32° |
| 2026-04-23 16:02 | 55.36776 | 12.41196 | 34590 ft | 423 kts | 32° |
| 2026-04-23 16:03 | 55.39159 | 12.44220 | 34824 ft | 423 kts | 32° |
| 2026-04-23 16:03 | 55.41541 | 12.47251 | 35047 ft | 422 kts | 30° |
| 2026-04-23 16:03 | 55.43923 | 12.50287 | 35169 ft | 424 kts | 32° |
| 2026-04-23 16:04 | 55.48767 | 12.56442 | 35167 ft | 434 kts | 32° |
| 2026-04-23 16:04 | 55.53710 | 12.62725 | 35167 ft | 442 kts | 32° |
| 2026-04-23 16:05 | 55.57879 | 12.68057 | 35165 ft | 447 kts | 32° |
| 2026-04-23 16:05 | 55.63760 | 12.75628 | 35164 ft | 447 kts | 32° |
| 2026-04-23 16:06 | 55.68783 | 12.82111 | 35165 ft | 446 kts | 32° |
| 2026-04-23 16:06 | 55.73804 | 12.88592 | 35175 ft | 447 kts | 32° |
| 2026-04-23 16:07 | 55.78816 | 12.95106 | 35180 ft | 447 kts | 32° |
| 2026-04-23 16:07 | 55.83834 | 13.01638 | 35176 ft | 447 kts | 32° |
| 2026-04-23 16:08 | 55.88845 | 13.08169 | 35169 ft | 446 kts | 32° |
| 2026-04-23 16:08 | 55.93846 | 13.14713 | 35170 ft | 446 kts | 32° |
| 2026-04-23 16:09 | 55.98834 | 13.21272 | 35154 ft | 445 kts | 32° |
| 2026-04-23 16:09 | 56.03802 | 13.27819 | 35138 ft | 443 kts | 32° |
| 2026-04-23 16:10 | 56.08754 | 13.34364 | 35140 ft | 443 kts | 32° |
| 2026-04-23 16:10 | 56.13698 | 13.40940 | 35139 ft | 442 kts | 33° |
| 2026-04-23 16:11 | 56.18630 | 13.47516 | 35143 ft | 442 kts | 32° |
| 2026-04-23 16:11 | 56.23571 | 13.54105 | 35146 ft | 442 kts | 33° |
| 2026-04-23 16:12 | 56.28507 | 13.60723 | 35144 ft | 443 kts | 33° |
| 2026-04-23 16:12 | 56.33438 | 13.67365 | 35142 ft | 442 kts | 33° |
| 2026-04-23 16:13 | 56.38366 | 13.74007 | 35134 ft | 442 kts | 33° |
| 2026-04-23 16:13 | 56.45751 | 13.84008 | 35121 ft | 442 kts | 33° |
| 2026-04-23 16:14 | 56.50664 | 13.90685 | 35129 ft | 442 kts | 33° |
| 2026-04-23 16:14 | 56.55571 | 13.97371 | 35128 ft | 441 kts | 33° |
| 2026-04-23 16:15 | 56.60470 | 14.04083 | 35124 ft | 441 kts | 33° |
| 2026-04-23 16:15 | 56.65363 | 14.10811 | 35124 ft | 441 kts | 33° |
| 2026-04-23 16:16 | 56.70216 | 14.17504 | 35122 ft | 441 kts | 33° |
| 2026-04-23 16:16 | 56.75098 | 14.24250 | 35109 ft | 440 kts | 33° |
| 2026-04-23 16:17 | 56.79975 | 14.31006 | 35107 ft | 440 kts | 33° |
| 2026-04-23 16:17 | 56.84839 | 14.37790 | 35102 ft | 440 kts | 33° |
| 2026-04-23 16:18 | 56.89692 | 14.44597 | 35096 ft | 439 kts | 33° |
| 2026-04-23 16:18 | 56.94576 | 14.51441 | 35088 ft | 439 kts | 33° |
| 2026-04-23 16:19 | 56.99424 | 14.58247 | 35089 ft | 439 kts | 34° |
| 2026-04-23 16:19 | 57.04054 | 14.65602 | 35088 ft | 441 kts | 38° |
| 2026-04-23 16:20 | 57.08553 | 14.73284 | 35094 ft | 441 kts | 39° |
| 2026-04-23 16:20 | 57.13026 | 14.81021 | 35098 ft | 441 kts | 39° |
| 2026-04-23 16:21 | 57.17517 | 14.88718 | 35105 ft | 441 kts | 39° |
| 2026-04-23 16:21 | 57.22021 | 14.96404 | 35114 ft | 441 kts | 38° |
| 2026-04-23 16:22 | 57.26510 | 15.04101 | 35121 ft | 441 kts | 39° |
| 2026-04-23 16:22 | 57.30998 | 15.11837 | 35122 ft | 441 kts | 39° |
| 2026-04-23 16:23 | 57.35471 | 15.19583 | 35122 ft | 440 kts | 39° |
| 2026-04-23 16:23 | 57.39937 | 15.27333 | 35112 ft | 440 kts | 39° |
| 2026-04-23 16:24 | 57.43650 | 15.33795 | 35120 ft | 440 kts | 39° |
| 2026-04-23 16:24 | 57.48103 | 15.41573 | 35117 ft | 439 kts | 39° |
| 2026-04-23 16:25 | 57.52546 | 15.49372 | 35122 ft | 439 kts | 39° |
| 2026-04-23 16:25 | 57.56974 | 15.57183 | 35117 ft | 438 kts | 39° |
| 2026-04-23 16:26 | 57.61394 | 15.64991 | 35119 ft | 437 kts | 39° |
| 2026-04-23 16:26 | 57.65804 | 15.72791 | 35115 ft | 437 kts | 39° |
| 2026-04-23 16:27 | 57.70200 | 15.80612 | 35113 ft | 436 kts | 39° |
| 2026-04-23 16:27 | 57.74582 | 15.88430 | 35111 ft | 435 kts | 39° |
| 2026-04-23 16:28 | 57.78954 | 15.96247 | 35111 ft | 434 kts | 39° |
| 2026-04-23 16:28 | 57.83283 | 16.04043 | 34382 ft | 429 kts | 39° |
| 2026-04-23 16:29 | 57.85441 | 16.07935 | 33501 ft | 430 kts | 39° |
| 2026-04-23 16:29 | 57.87599 | 16.11830 | 32526 ft | 432 kts | 39° |
| 2026-04-23 16:29 | 57.89776 | 16.15760 | 31526 ft | 435 kts | 39° |
| 2026-04-23 16:29 | 57.91964 | 16.19716 | 30495 ft | 438 kts | 39° |
| 2026-04-23 16:30 | 57.94169 | 16.23713 | 29320 ft | 442 kts | 39° |
| 2026-04-23 16:30 | 57.96404 | 16.27711 | 28091 ft | 443 kts | 36° |
| 2026-04-23 16:30 | 57.98846 | 16.31234 | 26837 ft | 443 kts | 32° |
| 2026-04-23 16:30 | 58.01352 | 16.34644 | 25558 ft | 446 kts | 32° |
| 2026-04-23 16:31 | 58.03888 | 16.38068 | 24269 ft | 450 kts | 32° |
| 2026-04-23 16:31 | 58.06441 | 16.41507 | 23045 ft | 450 kts | 32° |
| 2026-04-23 16:31 | 58.08973 | 16.44919 | 22108 ft | 443 kts | 32° |
| 2026-04-23 16:31 | 58.11380 | 16.48197 | 21761 ft | 408 kts | 32° |
| 2026-04-23 16:32 | 58.13580 | 16.51233 | 21308 ft | 376 kts | 32° |
| 2026-04-23 16:32 | 58.15607 | 16.54072 | 20805 ft | 351 kts | 32° |
| 2026-04-23 16:32 | 58.17523 | 16.56790 | 19919 ft | 340 kts | 32° |
| 2026-04-23 16:32 | 58.19388 | 16.59468 | 18920 ft | 334 kts | 32° |
| 2026-04-23 16:33 | 58.21223 | 16.62133 | 17858 ft | 330 kts | 32° |
| 2026-04-23 16:33 | 58.23035 | 16.64769 | 16734 ft | 326 kts | 32° |
| 2026-04-23 16:33 | 58.24834 | 16.67351 | 15660 ft | 323 kts | 32° |
| 2026-04-23 16:33 | 58.26625 | 16.69890 | 14616 ft | 320 kts | 32° |
| 2026-04-23 16:34 | 58.28410 | 16.72389 | 13645 ft | 321 kts | 32° |
| 2026-04-23 16:34 | 58.30211 | 16.74882 | 13102 ft | 319 kts | 32° |
| 2026-04-23 16:34 | 58.31998 | 16.77347 | 12572 ft | 316 kts | 32° |
| 2026-04-23 16:34 | 58.33773 | 16.79792 | 12044 ft | 314 kts | 32° |
| 2026-04-23 16:35 | 58.35534 | 16.82218 | 11529 ft | 311 kts | 32° |
| 2026-04-23 16:35 | 58.37279 | 16.84620 | 11106 ft | 308 kts | 32° |
| 2026-04-23 16:35 | 58.39020 | 16.87023 | 11018 ft | 310 kts | 32° |
| 2026-04-23 16:35 | 58.40770 | 16.89439 | 11039 ft | 311 kts | 32° |
| 2026-04-23 16:36 | 58.42521 | 16.91856 | 11034 ft | 311 kts | 32° |
| 2026-04-23 16:36 | 58.44272 | 16.94279 | 11035 ft | 311 kts | 32° |
| 2026-04-23 16:36 | 58.46026 | 16.96709 | 11022 ft | 311 kts | 32° |
| 2026-04-23 16:36 | 58.47777 | 16.99136 | 11020 ft | 311 kts | 32° |
| 2026-04-23 16:37 | 58.49528 | 17.01571 | 11016 ft | 311 kts | 32° |
| 2026-04-23 16:37 | 58.51314 | 17.04050 | 11014 ft | 321 kts | 32° |
| 2026-04-23 16:37 | 58.53141 | 17.06582 | 11014 ft | 330 kts | 32° |
| 2026-04-23 16:37 | 58.55012 | 17.09177 | 11017 ft | 333 kts | 32° |
| 2026-04-23 16:38 | 58.56888 | 17.11780 | 11011 ft | 333 kts | 32° |
| 2026-04-23 16:38 | 58.58767 | 17.14388 | 11014 ft | 333 kts | 32° |
| 2026-04-23 16:38 | 58.60641 | 17.16997 | 11014 ft | 333 kts | 32° |
| 2026-04-23 16:38 | 58.62512 | 17.19613 | 11015 ft | 333 kts | 32° |
| 2026-04-23 16:39 | 58.64384 | 17.22235 | 11014 ft | 332 kts | 32° |
| 2026-04-23 16:39 | 58.66249 | 17.24853 | 11012 ft | 332 kts | 32° |
| 2026-04-23 16:39 | 58.68112 | 17.27475 | 11014 ft | 332 kts | 32° |
| 2026-04-23 16:39 | 58.69973 | 17.30096 | 11014 ft | 331 kts | 32° |
| 2026-04-23 16:40 | 58.71829 | 17.32720 | 11012 ft | 331 kts | 32° |
| 2026-04-23 16:40 | 58.73684 | 17.35350 | 11010 ft | 331 kts | 32° |
| 2026-04-23 16:40 | 58.75533 | 17.37985 | 11015 ft | 331 kts | 33° |
| 2026-04-23 16:40 | 58.77376 | 17.40635 | 11011 ft | 330 kts | 32° |
| 2026-04-23 16:41 | 58.79219 | 17.43267 | 11016 ft | 330 kts | 32° |
| 2026-04-23 16:41 | 58.81062 | 17.45905 | 11012 ft | 330 kts | 32° |
| 2026-04-23 16:41 | 58.82901 | 17.48551 | 11017 ft | 329 kts | 32° |
| 2026-04-23 16:41 | 58.84740 | 17.51197 | 11018 ft | 329 kts | 32° |
| 2026-04-23 16:42 | 58.86567 | 17.53838 | 10814 ft | 326 kts | 32° |
| 2026-04-23 16:42 | 58.88372 | 17.56466 | 10214 ft | 324 kts | 32° |
| 2026-04-23 16:42 | 58.90161 | 17.59087 | 9597 ft | 322 kts | 32° |
| 2026-04-23 16:42 | 58.92056 | 17.61281 | 8957 ft | 313 kts | 20° |
| 2026-04-23 16:43 | 58.94064 | 17.62862 | 8337 ft | 310 kts | 18° |
| 2026-04-23 16:43 | 58.96067 | 17.64366 | 7732 ft | 307 kts | 18° |
| 2026-04-23 16:43 | 58.98052 | 17.65840 | 7220 ft | 303 kts | 18° |
| 2026-04-23 16:43 | 58.99967 | 17.67267 | 7094 ft | 287 kts | 18° |
| 2026-04-23 16:44 | 59.01780 | 17.68632 | 6968 ft | 272 kts | 18° |
| 2026-04-23 16:44 | 59.03506 | 17.69937 | 6769 ft | 262 kts | 18° |
| 2026-04-23 16:44 | 59.05191 | 17.71212 | 6414 ft | 259 kts | 18° |
| 2026-04-23 16:44 | 59.06865 | 17.72471 | 5989 ft | 257 kts | 18° |
| 2026-04-23 16:45 | 59.08531 | 17.73723 | 5576 ft | 256 kts | 17° |
| 2026-04-23 16:45 | 59.10184 | 17.74981 | 5170 ft | 254 kts | 18° |
| 2026-04-23 16:45 | 59.11822 | 17.76246 | 4763 ft | 252 kts | 18° |
| 2026-04-23 16:45 | 59.13447 | 17.77499 | 4349 ft | 250 kts | 15° |
| 2026-04-23 16:46 | 59.15118 | 17.78318 | 4055 ft | 244 kts | 8° |
| 2026-04-23 16:46 | 59.16794 | 17.78968 | 4032 ft | 248 kts | 7° |
| 2026-04-23 16:46 | 59.18489 | 17.79623 | 4034 ft | 249 kts | 8° |
| 2026-04-23 16:46 | 59.20184 | 17.80278 | 4034 ft | 248 kts | 7° |
| 2026-04-23 16:47 | 59.21829 | 17.80917 | 4032 ft | 233 kts | 8° |
| 2026-04-23 16:47 | 59.23366 | 17.81524 | 4032 ft | 220 kts | 8° |
| 2026-04-23 16:47 | 59.24859 | 17.82118 | 4033 ft | 218 kts | 7° |
| 2026-04-23 16:47 | 59.26347 | 17.82716 | 4032 ft | 218 kts | 8° |
| 2026-04-23 16:48 | 59.27839 | 17.83261 | 4039 ft | 218 kts | 6° |
| 2026-04-23 16:48 | 59.29338 | 17.83727 | 4036 ft | 217 kts | 5° |
| 2026-04-23 16:48 | 59.30833 | 17.84170 | 4034 ft | 217 kts | 4° |
| 2026-04-23 16:48 | 59.32285 | 17.84601 | 4033 ft | 204 kts | 4° |
| 2026-04-23 16:49 | 59.33189 | 17.84874 | 4032 ft | 193 kts | 5° |
| 2026-04-23 16:49 | 59.34865 | 17.85288 | 4026 ft | 172 kts | 1° |
| 2026-04-23 16:49 | 59.36042 | 17.85602 | 4049 ft | 169 kts | 7° |
| 2026-04-23 16:49 | 59.37124 | 17.86551 | 4038 ft | 172 kts | 22° |
| 2026-04-23 16:50 | 59.38225 | 17.87017 | 4052 ft | 161 kts | 347° |
| 2026-04-23 16:50 | 59.39332 | 17.86663 | 4036 ft | 164 kts | 1° |
| 2026-04-23 16:50 | 59.40454 | 17.87154 | 4043 ft | 165 kts | 5° |
| 2026-04-23 16:50 | 59.41584 | 17.87528 | 4038 ft | 165 kts | 5° |
| 2026-04-23 16:51 | 59.42700 | 17.87909 | 4022 ft | 165 kts | 5° |
| 2026-04-23 16:51 | 59.43839 | 17.88310 | 3900 ft | 163 kts | 5° |
| 2026-04-23 16:51 | 59.44958 | 17.88707 | 3696 ft | 165 kts | 5° |
| 2026-04-23 16:51 | 59.46091 | 17.89112 | 3479 ft | 165 kts | 5° |
| 2026-04-23 16:52 | 59.47219 | 17.89516 | 3260 ft | 165 kts | 5° |
| 2026-04-23 16:52 | 59.48354 | 17.89923 | 3009 ft | 166 kts | 5° |
| 2026-04-23 16:52 | 59.49486 | 17.90330 | 2800 ft | 166 kts | 5° |
| 2026-04-23 16:52 | 59.50618 | 17.90737 | 2556 ft | 165 kts | 5° |
| 2026-04-23 16:53 | 59.51748 | 17.91143 | 2329 ft | 165 kts | 5° |
| 2026-04-23 16:53 | 59.52884 | 17.91551 | 2100 ft | 167 kts | 5° |
| 2026-04-23 16:53 | 59.54027 | 17.91963 | 1875 ft | 167 kts | 6° |
| 2026-04-23 16:53 | 59.55171 | 17.92375 | 1644 ft | 167 kts | 7° |
| 2026-04-23 16:54 | 59.56310 | 17.92786 | 1415 ft | 167 kts | 7° |
| 2026-04-23 16:54 | 59.57403 | 17.93183 | 1197 ft | 149 kts | 6° |
| 2026-04-23 16:54 | 59.58382 | 17.93537 | 999 ft | 138 kts | 6° |
| 2026-04-23 16:54 | 59.59319 | 17.93876 | 823 ft | 137 kts | 6° |
| 2026-04-23 16:55 | 59.60268 | 17.94216 | 648 ft | 140 kts | 6° |
| 2026-04-23 16:55 | 59.61224 | 17.94562 | 464 ft | 138 kts | 6° |
| 2026-04-23 16:55 | 59.62182 | 17.94910 | 293 ft | 141 kts | 6° |
| 2026-04-23 16:55 | 59.63142 | 17.95255 | 146 ft | 134 kts | 6° |
| 2026-04-23 16:56 | 59.63644 | 17.95430 | 145 ft | 42 kts | 13° |
| 2026-04-23 16:56 | 59.63920 | 17.95534 | 144 ft | 39 kts | 9° |
| 2026-04-23 16:56 | 59.64091 | 17.95543 | 144 ft | 36 kts | 352° |
| 2026-04-23 16:56 | 59.64237 | 17.95455 | 139 ft | 0 kts | 340° |
| 2026-04-23 16:57 | 59.64238 | 17.95454 | 139 ft | 1 kts | 340° |
| 2026-04-23 16:58 | 59.64254 | 17.95443 | 139 ft | 4 kts | 340° |
| 2026-04-23 16:58 | 59.64287 | 17.95420 | 138 ft | 6 kts | 340° |
| 2026-04-23 16:58 | 59.64345 | 17.95378 | 138 ft | 12 kts | 340° |
| 2026-04-23 16:58 | 59.64441 | 17.95329 | 138 ft | 16 kts | 359° |
| 2026-04-23 16:59 | 59.64542 | 17.95264 | 138 ft | 16 kts | 290° |
| 2026-04-23 16:59 | 59.64495 | 17.95058 | 138 ft | 18 kts | 237° |
| 2026-04-23 16:59 | 59.64426 | 17.94845 | 138 ft | 19 kts | 238° |
| 2026-04-23 16:59 | 59.64354 | 17.94614 | 138 ft | 20 kts | 238° |
| 2026-04-23 17:00 | 59.64275 | 17.94371 | 138 ft | 22 kts | 237° |
| 2026-04-23 17:00 | 59.64194 | 17.94111 | 138 ft | 23 kts | 239° |
| 2026-04-23 17:00 | 59.64108 | 17.93843 | 138 ft | 24 kts | 239° |
| 2026-04-23 17:00 | 59.64018 | 17.93563 | 138 ft | 25 kts | 241° |
| 2026-04-23 17:01 | 59.64000 | 17.93262 | 138 ft | 4 kts | 287° |
| 2026-04-23 17:01 | 59.64001 | 17.93255 | 138 ft | 1 kts | 287° |
| 2026-04-23 17:01 | 59.64007 | 17.93222 | 138 ft | 4 kts | 290° |
| 2026-04-23 17:01 | 59.64020 | 17.93165 | 138 ft | 6 kts | 297° |
| 2026-04-23 17:02 | 59.64033 | 17.93114 | 138 ft | 7 kts | 299° |
| 2026-04-23 17:02 | 59.64072 | 17.92982 | 138 ft | 10 kts | 298° |
| 2026-04-23 17:02 | 59.64107 | 17.92852 | 138 ft | 12 kts | 297° |
| 2026-04-23 17:02 | 59.64147 | 17.92700 | 138 ft | 13 kts | 297° |
| 2026-04-23 17:03 | 59.64192 | 17.92527 | 138 ft | 15 kts | 297° |
| 2026-04-23 17:03 | 59.64243 | 17.92337 | 138 ft | 16 kts | 297° |
| 2026-04-23 17:03 | 59.64297 | 17.92131 | 138 ft | 17 kts | 296° |
| 2026-04-23 17:03 | 59.64363 | 17.91932 | 138 ft | 17 kts | 339° |
| 2026-04-23 17:04 | 59.64442 | 17.91941 | 138 ft | 18 kts | 9° |
| 2026-04-23 17:04 | 59.64570 | 17.91986 | 138 ft | 19 kts | 9° |
| 2026-04-23 17:04 | 59.64708 | 17.92039 | 138 ft | 21 kts | 13° |
| 2026-04-23 17:04 | 59.64855 | 17.92093 | 138 ft | 22 kts | 9° |
| 2026-04-23 17:05 | 59.65011 | 17.92148 | 138 ft | 23 kts | 10° |
| 2026-04-23 17:05 | 59.65174 | 17.92210 | 138 ft | 24 kts | 12° |
| 2026-04-23 17:05 | 59.65293 | 17.92299 | 138 ft | 12 kts | 66° |
| 2026-04-23 17:05 | 59.65278 | 17.92472 | 138 ft | 14 kts | 109° |
| 2026-04-23 17:06 | 59.65241 | 17.92656 | 138 ft | 15 kts | 110° |
| 2026-04-23 17:06 | 59.65220 | 17.92773 | 138 ft | 1 kts | 109° |
| 2026-04-23 17:06 | 59.65217 | 17.92796 | 138 ft | 3 kts | 107° |
| 2026-04-23 17:06 | 59.65209 | 17.92847 | 138 ft | 5 kts | 110° |
| 2026-04-23 17:07 | 59.65186 | 17.92912 | 138 ft | 5 kts | 129° |
| 2026-04-23 17:07 | 59.65184 | 17.92916 | 138 ft | 1 kts | 131° |
| 2026-04-23 17:07 | 59.65181 | 17.92920 | 138 ft | 1 kts | 141° |
| 2026-04-23 17:07 | 59.65168 | 17.92924 | 138 ft | 2 kts | 179° |
| 2026-04-23 17:08 | 59.65147 | 17.92907 | 138 ft | 4 kts | 205° |
| 2026-04-23 17:08 | 59.65134 | 17.92894 | 138 ft | 0 kts | 206° |